Gale Warning
As of today, there is no Gale Warning Issued.




Weather Advisory
As of today, there is no weather Advisory issued



Dams Water Level Update
As of 6AM, 19 September 2017

General Flood Advisories - Regional
As of  7PM, 19 September 2017 



Daily Basin Hydrological Forecast
Issued 19 September 2017




Monthly Climate Assessment and Outlook

Issued: 03 September 2017

Monthly Rainfall Forecast
RAINFALL FORECAST  (September 2017 - February 2018) 
UPDATED: 18 August 2017 (next update September 2017)


Regional Rainfall Forecast
Issued: 18 August 2017
Valid for: September 2017 - February 2018
Farm Weather Forecast and Advisories
ISSUED              : 8AM, MONDAY, SEPTEMBER 18, 2017
VALID UNTIL      :  8AM, TUESDAY, SEPTEMBER 19, 2017
FWFA:  N0. 17-262

Ten-Day Regional Agri-Weather Information
DEKAD NO. 26 SEPTEMBER 11-20, 2017

PHILIPPINE AGRI-WEATHER FORECAST
The weather systems that will affect the whole country are southwest monsoon, intertropical convergence zone (ITCZ), low pressure area (LPA), Tropical Depression Maring and Typhoon Lannie.
Seasonal Climate Outlook
Issued:  06 July 2017
FOR July - December 2017
PDF 




Astronomical Diary
Issue for September 2017
Autumnal equinox will occur on September 23 at 4:02 a.m...




   PAGASA webmail  Learning Tools  Bidding 

  Training Activities  Vacancy  Research-and-Development

  Engineering  faqupdate  Publications 
TAF RPLL

191100Z 1912/2018 26007KT 9999 FEW025 SCT100 TX33/2006Z TN26/1922Z TEMPO 1912/1918 21003KT 8000 –TSRA FEW022CB SCT023 OVC090 TEMPO 1918/1922 VRB02KT 8000 -SHRA FEW022CB SCT023 BKN090=
TAF RPVM

191100Z 1912/2018 24008KT 9999 FEW020 BKN250 TEMPO 1912/1918 23010KT 8000 -TSRA FEW018CB SCT020 OVC090 TEMPO 1918/1924 21006KT 9000 -SHRA FEW018CB SCT020 BKN090=
TAF RPLC

191100Z 1912/2018 19006KT 9999 SCT020 BKN100 TX33/2006Z TN24/1921Z TEMPO 1912/1918 32008KT 7000 –TSRA FEW015CB SCT020 BKN100=
TAF RPLB

191100Z 1912/2012 06004KT 9999 FEW020 SCT300 TX32/2006Z TN24/1922Z TEMPO 1912/1918 04008KT 8000 –TSRA FEW018CB SCT020 BKN080=
TAF RPLI

191100Z 1912/2012 27007KT 9999 FEW019 SCT100 BKN290 TEMPO 1912/1918 12004KT 7000 -TSRA FEW018CB SCT019 OVC090=
TAF RPVP

191100Z 1912/2012 27006KT 9999 FEW020 SCT080 BKN250 TEMPO 1912/1918 29003KT 9000 -TSRA FEW017CB SCT019 OVC080=
TAF RPVD

191100Z 1912/2012 22006KT 9999 FEW015 SCT080 BKN220 TEMPO 1912/1918 27004KT  8000   -TSRA FEW014CB SCT015 BKN080=
TAF RPMR

191100Z 1912/2012 19004KT 9999 FEW018 SCT080 BKN250 TEMPO 1912/1918 32003KT 9000    –SHRA FEW017CB SCT018 BKN080=
TAF RPMD

191100Z 1912/2012 18005KT 9999 FEW016 SCT080 BKN290 TEMPO 1912/1918 03003KT 9000 –TSRA FEW015CB SCT016 BKN090=
TAF RPMZ

191100Z 1912/2012 26004KT 9999 FEW018 BKN300 TEMPO 1912/1918 00000KT  8000   –TSRA FEW017CB SCT018 OVC100=

RPLL FORECAST TAKE-OFF CONDITION
TIME

(UTC)

WIND

(dddffKT)

TEMP

( °C)

QNH

(hPa)

TIME

(UTC)

WIND

(dddffKT)

TEMP

(°C)

QNH

(hPa)

1200

12003KT

26.5

1009.5

1600

20003KT

26.5

1010.0

1300

14003KT

26.5

1010.0

1700

19003KT

26.5

1009.5

1400

21003KT

26.5

1010.5

1800

26002KT

26.5

1009.0

1500

21003KT

26.5

1010.5

1900

27002KT

26.0

1008.5


ISSUED AT NAIA AMSS-WD/PAGASA-DOST FOR 1100UTC 19 SEPTEMBER 2017

PREPARED BY:             SSDH
CHECKED BY:               MPT
MDSI v2

PUBLIC WARNING 


It has come to the attention of the Office of the Administrator of PAGASA that a certain person has been using the name of Dr. Vicente B. Malano to solicit money from the contractors of PAGASA.

Dr. Malano wishes to inform the public that he has not authorized anyone to solicit money on his behalf and to warn everyone against dealing with unscrupulous activities of certain individuals.



payong pagasa on android The latest version of the official PAGASA app can now be downloaded on Google play store

Weather Division is now  ISO 9001:2008 Certified
Proof has been furnished by means of an audit that the requirements of ISO 9001:2008 are met.

Read more ...